createdAt,value
2023-01-27T00:01:17.954Z,0.20
2023-01-27T00:06:20.836Z,0.20
2023-01-27T00:11:42.185Z,0.20
2023-01-27T00:16:44.032Z,0.20
2023-01-27T00:22:05.254Z,0.10
2023-01-27T00:27:10.893Z,0.10
2023-01-27T00:32:30.738Z,0.00
2023-01-27T00:37:33.058Z,0.00
2023-01-27T00:42:36.843Z,0.00
2023-01-27T00:47:39.088Z,0.00
2023-01-27T00:52:41.269Z,0.00
2023-01-27T00:57:45.101Z,0.10
2023-01-27T01:02:47.242Z,0.10
2023-01-27T01:07:49.552Z,0.10
2023-01-27T01:12:53.364Z,-0.10
2023-01-27T01:17:55.392Z,0.00
2023-01-27T01:22:57.962Z,0.00
2023-01-27T01:28:01.405Z,0.10
2023-01-27T01:33:03.995Z,0.10
2023-01-27T01:38:06.472Z,0.10
2023-01-27T01:43:14.729Z,0.10
2023-01-27T01:48:20.977Z,0.00
2023-01-27T01:53:27.465Z,0.10
2023-01-27T01:58:31.464Z,0.10
2023-01-27T02:03:35.538Z,0.10
2023-01-27T02:08:41.373Z,0.00
2023-01-27T02:13:45.692Z,0.00
2023-01-27T02:18:47.756Z,-0.10
2023-01-27T02:24:01.197Z,-0.20
2023-01-27T02:29:09.412Z,-0.10
2023-01-27T02:34:16.101Z,0.00
2023-01-27T02:39:21.390Z,0.00
2023-01-27T02:44:25.352Z,0.00
2023-01-27T02:49:27.658Z,-0.20
2023-01-27T02:54:31.604Z,-0.30
2023-01-27T02:59:35.056Z,-0.30
2023-01-27T03:04:38.987Z,-0.30
2023-01-27T03:09:41.269Z,-0.30
2023-01-27T03:15:02.805Z,-0.30
2023-01-27T03:20:05.292Z,-0.20
2023-01-27T03:25:08.842Z,-0.20
2023-01-27T03:30:13.429Z,-0.20
2023-01-27T03:35:16.609Z,-0.20
2023-01-27T03:40:36.308Z,-0.20
2023-01-27T03:45:57.780Z,-0.20
2023-01-27T03:51:00.507Z,-0.30
2023-01-27T03:56:02.656Z,-0.20
2023-01-27T04:01:08.534Z,-0.30
2023-01-27T04:06:30.281Z,-0.30
2023-01-27T04:11:50.110Z,-0.30
2023-01-27T04:16:55.111Z,-0.30
2023-01-27T04:21:58.241Z,-0.30
2023-01-27T04:27:01.960Z,-0.30
2023-01-27T04:32:07.285Z,-0.20
2023-01-27T04:37:10.604Z,-0.30
2023-01-27T04:42:12.819Z,-0.20
2023-01-27T04:47:16.659Z,-0.20
2023-01-27T04:52:18.873Z,-0.20
2023-01-27T04:57:21.500Z,-0.20
2023-01-27T05:02:26.636Z,-0.20
2023-01-27T05:07:29.994Z,-0.10
2023-01-27T05:12:33.508Z,-0.20
2023-01-27T05:17:37.387Z,-0.20
2023-01-27T05:22:39.732Z,-0.20
2023-01-27T05:27:42.025Z,-0.20
2023-01-27T05:32:45.683Z,-0.20
2023-01-27T05:37:47.775Z,-0.20
2023-01-27T05:42:52.442Z,-0.20
2023-01-27T05:47:55.945Z,-0.20
2023-01-27T05:52:57.944Z,-0.10
2023-01-27T05:58:00.432Z,-0.10
2023-01-27T06:03:04.194Z,-0.20
2023-01-27T06:08:10.567Z,-0.30
2023-01-27T06:13:13.474Z,-0.40
2023-01-27T06:18:19.254Z,-0.30
2023-01-27T06:23:23.963Z,-0.40
2023-01-27T06:28:29.563Z,-0.40
2023-01-27T06:33:33.495Z,-0.40
2023-01-27T06:38:36.185Z,-0.40
2023-01-27T06:43:39.749Z,-0.40
2023-01-27T06:48:43.440Z,-0.40
2023-01-27T06:53:45.610Z,-0.40
2023-01-27T06:58:47.899Z,-0.40
2023-01-27T07:03:51.716Z,-0.40
2023-01-27T07:08:54.835Z,-0.40
2023-01-27T07:13:57.874Z,-0.50
2023-01-27T07:19:01.701Z,-0.50
2023-01-27T07:24:03.921Z,-0.40
2023-01-27T07:29:06.077Z,-0.20
2023-01-27T07:34:09.946Z,-0.20
2023-01-27T07:39:12.027Z,-0.20
2023-01-27T07:44:14.632Z,-0.30
2023-01-27T07:49:18.300Z,-0.30
2023-01-27T07:54:20.521Z,-0.10
2023-01-27T07:59:22.801Z,-0.10
2023-01-27T08:04:26.713Z,0.00
2023-01-27T08:09:29.303Z,0.10
2023-01-27T08:14:31.480Z,0.20
2023-01-27T08:19:35.264Z,0.20
2023-01-27T08:24:37.591Z,0.30
2023-01-27T08:29:39.731Z,0.30
2023-01-27T08:34:43.697Z,0.60
2023-01-27T08:39:45.800Z,0.90
2023-01-27T08:44:47.598Z,1.00
2023-01-27T08:49:51.426Z,1.20
2023-01-27T08:54:53.518Z,1.50
2023-01-27T08:59:55.807Z,1.50
2023-01-27T09:04:59.879Z,1.80
2023-01-27T09:10:13.800Z,2.00
2023-01-27T09:15:17.203Z,2.10
2023-01-27T09:20:22.703Z,2.00
2023-01-27T09:25:25.006Z,1.90
2023-01-27T09:30:28.727Z,1.80
2023-01-27T09:35:40.114Z,1.80
2023-01-27T09:40:56.540Z,1.70
2023-01-27T09:46:12.394Z,1.70
2023-01-27T09:51:22.680Z,1.90
2023-01-27T09:56:39.052Z,1.80
2023-01-27T10:01:50.251Z,1.90
2023-01-27T10:07:13.003Z,2.00
2023-01-27T10:12:31.954Z,1.90
2023-01-27T10:17:44.333Z,2.00
2023-01-27T10:22:59.035Z,2.10
2023-01-27T10:28:08.354Z,2.10
2023-01-27T10:33:18.773Z,2.20
2023-01-27T10:38:36.370Z,2.20
2023-01-27T10:43:50.779Z,2.20
2023-01-27T10:48:57.972Z,2.10
2023-01-27T10:54:07.154Z,2.20
2023-01-27T10:59:16.483Z,2.30
2023-01-27T11:04:29.369Z,2.40
2023-01-27T11:09:36.687Z,2.20
2023-01-27T11:14:46.663Z,2.20
2023-01-27T11:19:57.855Z,2.20
2023-01-27T11:25:09.148Z,1.90
2023-01-27T11:30:18.067Z,2.10
2023-01-27T11:35:20.613Z,2.30
2023-01-27T11:40:30.715Z,2.60
2023-01-27T11:45:37.472Z,2.60
2023-01-27T11:50:39.736Z,2.70
2023-01-27T11:55:47.817Z,2.80
2023-01-27T12:00:54.915Z,2.70
2023-01-27T12:06:01.479Z,2.50
2023-01-27T12:11:22.840Z,2.40
2023-01-27T12:16:28.671Z,2.40
2023-01-27T12:21:45.780Z,1.90
2023-01-27T12:26:49.377Z,2.00
2023-01-27T12:31:54.505Z,2.00
2023-01-27T12:36:57.803Z,1.80
2023-01-27T12:42:01.264Z,1.80
2023-01-27T12:47:05.816Z,1.80
2023-01-27T12:52:17.116Z,1.90
2023-01-27T12:57:26.199Z,1.80
2023-01-27T13:02:32.377Z,1.90
2023-01-27T13:07:43.629Z,1.90
2023-01-27T13:12:55.305Z,2.00
2023-01-27T13:17:58.404Z,1.90
2023-01-27T13:23:04.732Z,1.90
2023-01-27T13:28:09.973Z,2.00
2023-01-27T13:33:27.267Z,2.10
2023-01-27T13:38:38.062Z,2.20
2023-01-27T13:43:45.647Z,2.30
2023-01-27T13:48:53.370Z,2.10
2023-01-27T13:54:00.536Z,1.90
2023-01-27T13:59:15.709Z,1.70
2023-01-27T14:04:50.249Z,1.60
2023-01-27T14:10:06.057Z,1.50
2023-01-27T14:15:24.626Z,1.40
2023-01-27T14:20:47.177Z,1.30
2023-01-27T14:26:01.331Z,1.40
2023-01-27T14:31:10.951Z,1.40
2023-01-27T14:36:21.510Z,1.30
2023-01-27T14:41:29.001Z,1.30
2023-01-27T14:46:48.084Z,1.40
2023-01-27T14:51:56.028Z,1.40
2023-01-27T14:57:16.728Z,1.40
2023-01-27T15:02:38.407Z,1.50
2023-01-27T15:07:48.245Z,1.50
2023-01-27T15:13:23.821Z,1.40
2023-01-27T15:18:59.209Z,1.40
2023-01-27T15:24:25.821Z,1.30
2023-01-27T15:29:30.925Z,1.10
2023-01-27T15:34:34.510Z,1.10
2023-01-27T15:40:03.882Z,1.00
2023-01-27T15:45:26.297Z,1.00
2023-01-27T15:50:33.289Z,1.00
2023-01-27T15:55:38.776Z,0.90
2023-01-27T16:00:42.986Z,0.90
2023-01-27T16:05:51.324Z,0.90
2023-01-27T16:10:53.576Z,0.90
2023-01-27T16:16:30.388Z,0.80
2023-01-27T16:21:45.266Z,0.80
2023-01-27T16:26:51.726Z,0.80
2023-01-27T16:31:58.978Z,0.80
2023-01-27T16:37:15.417Z,0.80
2023-01-27T16:42:18.740Z,0.80
2023-01-27T16:47:26.615Z,0.90
2023-01-27T16:52:41.734Z,0.70
2023-01-27T16:57:47.304Z,0.80
2023-01-27T17:02:51.457Z,0.80
2023-01-27T17:08:14.997Z,0.80
2023-01-27T17:13:32.186Z,0.80
2023-01-27T17:18:51.764Z,0.80
2023-01-27T17:24:02.001Z,0.80
2023-01-27T17:29:05.246Z,0.80
2023-01-27T17:34:11.331Z,0.70
2023-01-27T17:39:26.492Z,0.70
2023-01-27T17:44:29.189Z,0.70
2023-01-27T17:49:33.383Z,0.80
2023-01-27T17:54:39.282Z,0.70
2023-01-27T17:59:45.828Z,0.70
2023-01-27T18:04:49.303Z,0.70
2023-01-27T18:09:56.902Z,0.70
2023-01-27T18:14:59.559Z,0.60
2023-01-27T18:20:02.263Z,0.50
2023-01-27T18:25:18.186Z,0.50
2023-01-27T18:30:24.630Z,0.40
2023-01-27T18:35:30.313Z,0.40
2023-01-27T18:40:36.110Z,0.40
2023-01-27T18:45:42.328Z,0.40
2023-01-27T18:50:50.128Z,0.40
2023-01-27T18:55:55.225Z,0.30
2023-01-27T19:01:00.028Z,0.30
2023-01-27T19:06:03.690Z,0.30
2023-01-27T19:11:08.372Z,0.20
2023-01-27T19:16:16.677Z,0.20
2023-01-27T19:21:19.364Z,0.00
2023-01-27T19:26:24.991Z,-0.10
2023-01-27T19:31:28.588Z,-0.20
2023-01-27T19:36:35.441Z,-0.30
2023-01-27T19:41:40.492Z,-0.20
2023-01-27T19:46:44.597Z,0.00
2023-01-27T19:51:48.435Z,-0.30
2023-01-27T19:56:53.783Z,-0.50
2023-01-27T20:01:59.463Z,-0.60
2023-01-27T20:07:03.608Z,-0.70
2023-01-27T20:12:15.871Z,-0.80
2023-01-27T20:17:20.389Z,-0.80
2023-01-27T20:22:23.556Z,-0.90
2023-01-27T20:27:28.318Z,-1.10
2023-01-27T20:32:35.087Z,-1.10
2023-01-27T20:37:43.907Z,-0.90
2023-01-27T20:42:54.514Z,-0.70
2023-01-27T20:47:59.860Z,-0.70
2023-01-27T20:53:04.947Z,-0.70
2023-01-27T20:58:09.626Z,-0.90
2023-01-27T21:03:12.375Z,-1.00
2023-01-27T21:08:15.285Z,-1.20
2023-01-27T21:13:19.695Z,-1.30
2023-01-27T21:18:23.180Z,-1.20
2023-01-27T21:23:27.038Z,-1.00
2023-01-27T21:28:31.569Z,-0.80
2023-01-27T21:33:36.370Z,-0.70
2023-01-27T21:38:39.147Z,-0.60
2023-01-27T21:44:01.050Z,-0.50
2023-01-27T21:49:24.678Z,-0.50
2023-01-27T21:55:14.542Z,-0.50
2023-01-27T22:00:21.628Z,-0.40
2023-01-27T22:05:24.791Z,-0.30
2023-01-27T22:10:28.773Z,-0.40
2023-01-27T22:15:33.530Z,-0.50
2023-01-27T22:20:36.196Z,-0.50
2023-01-27T22:25:38.214Z,-0.50
2023-01-27T22:30:42.384Z,-0.50
2023-01-27T22:35:44.692Z,-0.30
2023-01-27T22:40:46.964Z,-0.30
2023-01-27T22:45:51.136Z,-0.30
2023-01-27T22:50:52.934Z,-0.30
2023-01-27T22:56:00.123Z,-0.30
2023-01-27T23:01:06.748Z,-0.40
2023-01-27T23:06:10.041Z,-0.40
2023-01-27T23:11:12.428Z,-0.40
2023-01-27T23:16:17.704Z,-0.40
2023-01-27T23:21:19.860Z,-0.30
2023-01-27T23:26:22.121Z,-0.30
2023-01-27T23:31:25.972Z,-0.30
2023-01-27T23:36:28.961Z,-0.30
2023-01-27T23:41:31.262Z,-0.30
2023-01-27T23:46:34.841Z,-0.30
2023-01-27T23:51:37.139Z,-0.30
2023-01-27T23:56:39.671Z,-0.20
